Time;durP1;ratioP1;P1;durP2;ratioP2;P2;SDS_P1;SDS_P2;PMS_P1;PMS_P2;Temp;Humidity;BMP_temperature;BMP_pressure;BME280_temperature;BME280_humidity;BME280_pressure;Samples;Min_cycle;Max_cycle;Signal;HPM_P1;HPM_P2
2022/09/22 00:00:56;;;;;;;1.40;1.30;;;13.00;99.90;;;;;;5030908;28;20188;-74
2022/09/22 00:03:26;;;;;;;1.25;1.23;;;12.90;99.90;;;;;;5042787;28;20230;-74
2022/09/22 00:06:00;;;;;;;1.50;1.40;;;12.90;99.90;;;;;;5044453;28;20226;-74
2022/09/22 00:08:29;;;;;;;1.80;1.23;;;12.90;99.90;;;;;;5033667;28;20242;-74
2022/09/22 00:11:02;;;;;;;1.30;1.20;;;12.90;99.90;;;;;;5045895;28;20707;-74
2022/09/22 00:13:30;;;;;;;1.40;1.20;;;12.80;99.90;;;;;;5058728;28;20219;-74
2022/09/22 00:15:59;;;;;;;1.63;1.52;;;12.90;99.90;;;;;;5049228;28;20191;-74
2022/09/22 00:18:28;;;;;;;1.70;1.60;;;12.90;99.90;;;;;;5032073;28;20215;-74
2022/09/22 00:20:56;;;;;;;1.50;1.40;;;12.90;99.90;;;;;;5040653;28;20253;-73
2022/09/22 00:23:25;;;;;;;3.55;1.50;;;13.00;99.90;;;;;;5043403;28;20234;-74
2022/09/22 00:25:53;;;;;;;1.40;1.30;;;13.00;99.90;;;;;;5029485;28;20651;-74
2022/09/22 00:28:20;;;;;;;1.73;1.60;;;12.90;99.90;;;;;;5043881;28;20261;-74
2022/09/22 00:30:48;;;;;;;1.65;1.55;;;13.00;99.90;;;;;;5030495;28;20212;-72
2022/09/22 00:33:15;;;;;;;1.10;1.10;;;12.90;99.90;;;;;;5032232;28;20708;-73
2022/09/22 00:35:43;;;;;;;1.35;1.25;;;12.90;99.90;;;;;;5027933;28;20196;-73
2022/09/22 00:38:11;;;;;;;1.40;1.30;;;12.90;99.90;;;;;;5031686;28;20716;-73
2022/09/22 00:40:38;;;;;;;1.77;1.27;;;12.90;99.90;;;;;;5043175;28;20195;-72
2022/09/22 00:43:17;;;;;;;1.17;1.10;;;12.90;99.90;;;;;;5029731;28;20640;-73
2022/09/22 00:45:46;;;;;;;1.55;1.45;;;12.90;99.90;;;;;;5030026;28;20200;-72
2022/09/22 00:48:13;;;;;;;1.48;1.35;;;12.90;99.90;;;;;;5025737;28;20269;-73
2022/09/22 00:50:41;;;;;;;1.55;1.30;;;13.00;99.90;;;;;;5025972;28;20613;-73
2022/09/22 00:53:14;;;;;;;1.08;1.08;;;13.00;99.90;;;;;;5033993;28;20224;-72
2022/09/22 00:55:46;;;;;;;1.60;1.50;;;12.90;99.90;;;;;;5030553;28;20208;-73
2022/09/22 00:58:18;;;;;;;1.33;1.23;;;12.90;99.90;;;;;;5037399;28;20216;-73
2022/09/22 01:00:46;;;;;;;1.63;1.40;;;12.80;99.90;;;;;;5029584;28;20196;-74
2022/09/22 01:03:17;;;;;;;1.27;1.17;;;12.80;99.90;;;;;;5039105;28;20289;-73
2022/09/22 01:05:48;;;;;;;1.60;1.50;;;12.80;99.90;;;;;;5033979;28;20192;-73
2022/09/22 01:08:18;;;;;;;1.52;1.42;;;12.90;99.90;;;;;;5046740;28;20223;-73
2022/09/22 01:10:47;;;;;;;1.38;1.27;;;12.80;99.90;;;;;;5031702;28;20245;-73
2022/09/22 01:13:24;;;;;;;1.27;1.27;;;12.80;99.90;;;;;;5029159;28;20249;-73
2022/09/22 01:16:20;;;;;;;1.50;1.40;;;12.90;99.90;;;;;;5026861;28;20207;-72
2022/09/22 01:18:59;;;;;;;1.40;1.33;;;12.90;99.90;;;;;;5045004;28;20220;-72
2022/09/22 01:21:36;;;;;;;1.58;1.48;;;12.90;99.90;;;;;;5046775;28;20250;-73
2022/09/22 01:24:43;;;;;;;1.45;1.33;;;12.90;99.90;;;;;;5029741;28;20219;-73
2022/09/22 01:27:48;;;;;;;1.48;1.38;;;12.90;99.90;;;;;;5033866;28;20195;-73
2022/09/22 01:30:28;;;;;;;1.17;1.08;;;12.90;99.90;;;;;;5027782;28;20227;-72
2022/09/22 01:33:21;;;;;;;1.67;1.25;;;12.90;99.90;;;;;;5029589;28;20222;-72
2022/09/22 01:36:13;;;;;;;1.85;1.40;;;12.90;99.90;;;;;;5055296;28;20199;-72
2022/09/22 01:38:46;;;;;;;2.15;1.40;;;12.80;99.90;;;;;;5034701;28;20222;-73
2022/09/22 01:41:19;;;;;;;1.25;1.13;;;12.80;99.90;;;;;;5033870;28;20286;-72
2022/09/22 01:43:52;;;;;;;2.70;1.50;;;12.70;99.90;;;;;;5030591;28;20281;-72
2022/09/22 01:46:25;;;;;;;2.83;1.85;;;12.80;99.90;;;;;;5030884;28;20195;-72
2022/09/22 01:48:55;;;;;;;1.30;1.20;;;12.70;99.90;;;;;;5037536;28;20265;-72
2022/09/22 01:51:26;;;;;;;1.33;1.23;;;12.70;99.90;;;;;;5048644;28;20206;-73
2022/09/22 01:53:57;;;;;;;1.40;1.30;;;12.70;99.90;;;;;;5044906;28;20222;-71
2022/09/22 01:56:27;;;;;;;1.00;1.00;;;12.60;99.90;;;;;;5031346;28;20200;-72
2022/09/22 01:58:58;;;;;;;1.60;1.50;;;12.60;99.90;;;;;;5035289;28;20225;-72
2022/09/22 02:01:31;;;;;;;1.33;1.23;;;12.70;99.90;;;;;;5028316;28;20196;-72
2022/09/22 02:04:04;;;;;;;0.98;0.98;;;12.60;99.90;;;;;;5033452;28;20225;-72
2022/09/22 02:06:36;;;;;;;1.23;1.20;;;12.60;99.90;;;;;;5031482;28;20214;-72
2022/09/22 02:09:06;;;;;;;1.40;1.30;;;12.60;99.90;;;;;;5026033;28;20224;-72
2022/09/22 02:11:33;;;;;;;1.15;1.15;;;12.60;99.90;;;;;;5027923;28;20609;-73
2022/09/22 02:14:02;;;;;;;1.42;1.33;;;12.60;99.90;;;;;;5029847;28;20227;-73
2022/09/22 02:16:32;;;;;;;1.38;1.27;;;12.60;99.90;;;;;;5028408;28;20652;-73
2022/09/22 02:19:05;;;;;;;1.35;1.25;;;12.50;99.90;;;;;;5028753;28;20223;-72
2022/09/22 02:21:32;;;;;;;1.10;1.10;;;12.60;99.90;;;;;;5033422;28;20205;-73
2022/09/22 02:24:00;;;;;;;1.40;1.33;;;12.50;99.90;;;;;;5024475;28;20230;-73
2022/09/22 02:26:34;;;;;;;1.13;1.00;;;12.50;99.90;;;;;;5028577;28;20204;-72
2022/09/22 02:29:04;;;;;;;1.35;1.25;;;12.50;99.90;;;;;;5030704;28;20219;-74
2022/09/22 02:31:36;;;;;;;1.52;1.42;;;12.50;99.90;;;;;;5027891;28;20207;-73
2022/09/22 02:34:05;;;;;;;1.38;1.30;;;12.50;99.90;;;;;;5031423;28;20223;-74
2022/09/22 02:36:45;;;;;;;1.10;1.10;;;12.40;99.90;;;;;;5047293;28;20265;-73
2022/09/22 02:39:17;;;;;;;1.08;1.05;;;12.40;99.90;;;;;;5031048;28;20215;-73
2022/09/22 02:42:14;;;;;;;1.63;1.23;;;12.50;99.90;;;;;;5029572;28;20282;-73
2022/09/22 02:44:47;;;;;;;1.23;1.13;;;12.50;99.90;;;;;;5028125;28;20570;-73
2022/09/22 02:47:22;;;;;;;1.33;1.23;;;12.40;99.90;;;;;;5037024;28;20192;-71
2022/09/22 02:49:50;;;;;;;1.23;1.23;;;12.40;99.90;;;;;;5047812;28;20659;-73
2022/09/22 02:52:22;;;;;;;1.30;1.30;;;12.40;99.90;;;;;;5029377;28;20191;-73
2022/09/22 02:54:51;;;;;;;1.27;1.17;;;12.30;99.90;;;;;;5029341;28;20276;-73
2022/09/22 02:57:19;;;;;;;1.42;1.33;;;12.40;99.90;;;;;;5035187;28;20199;-73
2022/09/22 02:59:46;;;;;;;1.27;1.27;;;12.30;99.90;;;;;;5035280;28;20324;-73
2022/09/22 03:02:15;;;;;;;1.50;1.40;;;12.30;99.90;;;;;;5029749;28;20200;-73
2022/09/22 03:04:42;;;;;;;1.63;1.52;;;12.30;99.90;;;;;;5031300;28;20227;-73
2022/09/22 03:07:09;;;;;;;1.33;1.33;;;12.30;99.90;;;;;;5032627;28;20196;-73
2022/09/22 03:09:37;;;;;;;1.52;1.42;;;12.20;99.90;;;;;;5036573;28;20245;-73
2022/09/22 03:12:04;;;;;;;1.50;1.40;;;12.20;99.90;;;;;;5034927;28;20569;-73
2022/09/22 03:14:31;;;;;;;1.30;1.30;;;12.20;99.90;;;;;;5029360;28;20281;-72
2022/09/22 03:16:59;;;;;;;1.48;1.38;;;12.10;99.90;;;;;;5029569;28;20212;-73
2022/09/22 03:19:27;;;;;;;1.35;1.25;;;12.10;99.90;;;;;;5031382;28;20249;-73
2022/09/22 03:21:55;;;;;;;1.15;1.15;;;12.10;99.90;;;;;;5033365;28;20199;-73
2022/09/22 03:24:22;;;;;;;1.48;1.35;;;12.10;99.90;;;;;;5044124;28;20216;-73
2022/09/22 03:26:49;;;;;;;0.90;0.90;;;12.10;99.90;;;;;;5047295;28;20210;-73
2022/09/22 03:29:16;;;;;;;1.40;1.40;;;12.10;99.90;;;;;;5032549;28;20224;-73
2022/09/22 03:31:44;;;;;;;1.30;1.30;;;12.00;99.90;;;;;;5032121;28;20318;-73
2022/09/22 03:34:11;;;;;;;1.40;1.30;;;12.00;99.90;;;;;;5035064;28;20595;-73
2022/09/22 03:36:39;;;;;;;1.00;1.00;;;12.00;99.90;;;;;;5029534;28;20196;-73
2022/09/22 03:39:07;;;;;;;1.40;1.30;;;11.90;99.90;;;;;;5025565;28;20228;-73
2022/09/22 03:41:34;;;;;;;1.58;1.40;;;11.90;99.90;;;;;;5028062;28;20203;-73
2022/09/22 03:44:01;;;;;;;1.30;1.20;;;11.90;99.90;;;;;;5030575;28;20273;-73
2022/09/22 03:46:29;;;;;;;1.65;1.38;;;11.90;99.90;;;;;;5030526;28;20691;-73
2022/09/22 03:48:57;;;;;;;1.40;1.30;;;11.90;99.90;;;;;;5023352;28;20271;-73
2022/09/22 03:51:24;;;;;;;1.10;1.10;;;11.90;99.90;;;;;;5031011;28;20255;-73
2022/09/22 03:53:53;;;;;;;1.35;1.25;;;11.90;99.90;;;;;;5024057;28;20220;-73
2022/09/22 03:56:20;;;;;;;1.75;1.65;;;11.80;99.90;;;;;;5007619;28;20204;-73
2022/09/22 03:58:48;;;;;;;1.45;1.35;;;11.80;99.90;;;;;;5021257;28;20265;-73
2022/09/22 04:01:15;;;;;;;1.90;1.40;;;11.80;99.90;;;;;;5017352;28;20180;-71
2022/09/22 04:03:43;;;;;;;1.30;1.20;;;11.80;99.90;;;;;;5023592;28;20691;-73
2022/09/22 04:06:11;;;;;;;1.30;1.30;;;11.80;99.90;;;;;;5000299;28;20215;-74
2022/09/22 04:08:38;;;;;;;1.30;1.20;;;11.70;99.90;;;;;;5018460;28;20278;-74
2022/09/22 04:11:07;;;;;;;1.38;1.27;;;11.70;99.90;;;;;;5005193;28;20246;-74
2022/09/22 04:13:35;;;;;;;1.35;1.27;;;11.70;99.90;;;;;;5006609;28;20220;-74
2022/09/22 04:16:04;;;;;;;1.50;1.40;;;11.60;99.90;;;;;;5006271;28;20287;-74
2022/09/22 04:18:31;;;;;;;1.10;1.10;;;11.60;99.90;;;;;;5008346;28;20338;-74
2022/09/22 04:21:00;;;;;;;1.48;1.38;;;11.50;99.90;;;;;;5022927;28;20204;-74
2022/09/22 04:23:27;;;;;;;1.67;1.58;;;11.50;99.90;;;;;;5008876;28;20324;-73
2022/09/22 04:25:54;;;;;;;1.50;1.40;;;11.50;99.90;;;;;;5005861;28;20212;-74
2022/09/22 04:28:23;;;;;;;1.70;1.60;;;11.50;99.90;;;;;;5005073;28;20227;-73
2022/09/22 04:30:51;;;;;;;1.55;1.45;;;11.50;99.90;;;;;;5013686;28;20250;-73
2022/09/22 04:33:18;;;;;;;1.25;1.20;;;11.50;99.90;;;;;;5008327;28;20247;-73
2022/09/22 04:35:45;;;;;;;1.58;1.48;;;11.50;99.90;;;;;;5010587;28;20192;-73
2022/09/22 04:38:13;;;;;;;1.38;1.27;;;11.50;99.90;;;;;;5006069;28;20220;-73
2022/09/22 04:40:41;;;;;;;1.60;1.50;;;11.50;99.90;;;;;;5030678;28;20211;-73
2022/09/22 04:43:08;;;;;;;1.50;1.40;;;11.50;99.90;;;;;;5030827;28;20215;-73
2022/09/22 04:45:37;;;;;;;1.38;1.30;;;11.40;99.90;;;;;;5030807;28;20224;-73
2022/09/22 04:48:06;;;;;;;1.55;1.45;;;11.40;99.90;;;;;;5064921;28;20224;-74
2022/09/22 04:50:33;;;;;;;1.50;1.40;;;11.40;99.90;;;;;;5027929;28;20206;-73
2022/09/22 04:53:00;;;;;;;2.17;1.73;;;11.40;99.90;;;;;;5039798;28;20227;-73
2022/09/22 04:55:28;;;;;;;1.42;1.33;;;11.50;99.90;;;;;;5033004;28;20195;-74
2022/09/22 04:57:56;;;;;;;1.70;1.38;;;11.50;99.90;;;;;;5031277;28;20199;-73
2022/09/22 05:00:28;;;;;;;1.55;1.45;;;11.40;99.90;;;;;;5033579;28;20199;-72
2022/09/22 05:02:57;;;;;;;1.38;1.17;;;11.50;99.90;;;;;;5026801;28;20763;-72
2022/09/22 05:05:25;;;;;;;2.00;1.30;;;11.50;99.90;;;;;;5026742;28;20227;-72
2022/09/22 05:07:53;;;;;;;1.50;1.40;;;11.50;99.90;;;;;;5030453;28;20196;-73
2022/09/22 05:10:24;;;;;;;1.73;1.63;;;11.50;99.90;;;;;;5030194;28;20261;-73
2022/09/22 05:12:52;;;;;;;1.27;1.20;;;11.50;99.90;;;;;;5030568;28;20200;-73
2022/09/22 05:15:21;;;;;;;1.50;1.40;;;11.50;99.90;;;;;;5030894;28;20295;-73
2022/09/22 05:17:50;;;;;;;1.60;1.50;;;11.50;99.90;;;;;;5033851;28;20224;-72
2022/09/22 05:20:20;;;;;;;1.48;1.38;;;11.50;99.90;;;;;;5030245;28;20662;-72
2022/09/22 05:22:48;;;;;;;1.90;1.35;;;11.50;99.90;;;;;;5032292;28;20203;-72
2022/09/22 05:25:17;;;;;;;1.50;1.40;;;11.50;99.90;;;;;;5033539;28;20247;-72
2022/09/22 05:27:46;;;;;;;1.27;1.17;;;11.50;99.90;;;;;;5030764;28;20215;-72
2022/09/22 05:30:14;;;;;;;1.17;1.17;;;11.50;99.90;;;;;;5023048;28;20729;-73
2022/09/22 05:32:43;;;;;;;1.50;1.40;;;11.60;99.90;;;;;;5034776;28;20199;-72
2022/09/22 05:35:10;;;;;;;1.90;1.80;;;11.60;99.90;;;;;;5027496;28;20733;-73
2022/09/22 05:37:39;;;;;;;1.42;1.40;;;11.60;99.90;;;;;;5028575;28;20288;-72
2022/09/22 05:40:07;;;;;;;2.13;1.88;;;11.70;99.90;;;;;;5026986;28;20238;-72
2022/09/22 05:42:34;;;;;;;1.55;1.45;;;11.70;99.90;;;;;;5031231;28;20210;-72
2022/09/22 05:45:01;;;;;;;1.80;1.70;;;11.70;99.90;;;;;;5009662;28;20281;-73
2022/09/22 05:47:28;;;;;;;1.63;1.52;;;11.80;99.90;;;;;;5031120;28;20195;-72
2022/09/22 05:49:56;;;;;;;1.80;1.70;;;11.80;99.90;;;;;;5027441;28;20227;-72
2022/09/22 05:52:23;;;;;;;1.52;1.35;;;11.90;99.90;;;;;;5045457;28;20200;-73
2022/09/22 05:54:52;;;;;;;1.52;1.42;;;11.90;99.90;;;;;;5035585;28;20750;-72
2022/09/22 05:57:20;;;;;;;1.67;1.50;;;12.20;99.90;;;;;;5031911;28;20687;-73
2022/09/22 05:59:48;;;;;;;1.45;1.42;;;12.50;99.90;;;;;;5029110;28;20214;-72
2022/09/22 06:02:15;;;;;;;1.75;1.52;;;12.90;99.90;;;;;;5023344;28;20192;-72
2022/09/22 06:04:42;;;;;;;4.18;1.55;;;13.50;99.90;;;;;;5024226;28;20223;-73
2022/09/22 06:07:10;;;;;;;1.80;1.70;;;13.80;99.90;;;;;;5060133;28;20200;-72
2022/09/22 06:09:37;;;;;;;1.52;1.42;;;14.10;99.90;;;;;;5022532;28;20219;-72
2022/09/22 06:12:07;;;;;;;1.75;1.65;;;14.30;99.90;;;;;;5026112;28;20230;-72
2022/09/22 06:14:34;;;;;;;2.25;1.70;;;14.20;99.90;;;;;;5026756;28;20222;-73
2022/09/22 06:17:02;;;;;;;1.95;1.30;;;14.00;99.90;;;;;;5018223;28;20231;-73
2022/09/22 06:19:29;;;;;;;1.63;1.52;;;13.70;99.90;;;;;;5025144;28;20711;-72
2022/09/22 06:21:57;;;;;;;1.40;1.30;;;13.40;99.90;;;;;;5020219;28;20335;-73
2022/09/22 06:24:24;;;;;;;1.48;1.38;;;13.20;99.90;;;;;;5026798;28;20910;-72
2022/09/22 06:26:51;;;;;;;1.40;1.30;;;13.20;99.90;;;;;;5026710;28;20270;-72
2022/09/22 06:29:19;;;;;;;1.77;1.60;;;13.50;99.90;;;;;;5024125;28;20216;-72
2022/09/22 06:31:47;;;;;;;1.83;1.73;;;13.80;99.90;;;;;;5028592;28;20224;-72
2022/09/22 06:34:14;;;;;;;1.65;1.55;;;13.80;99.90;;;;;;5022570;28;20337;-72
2022/09/22 06:36:44;;;;;;;1.50;1.40;;;14.00;99.90;;;;;;5036469;28;20199;-72
2022/09/22 06:39:12;;;;;;;1.73;1.55;;;14.00;99.90;;;;;;5028130;28;20222;-72
2022/09/22 06:41:39;;;;;;;1.75;1.65;;;13.90;99.90;;;;;;5026382;28;20857;-72
2022/09/22 06:44:07;;;;;;;1.70;1.60;;;13.80;99.90;;;;;;5022341;28;20592;-72
2022/09/22 06:46:36;;;;;;;2.40;1.70;;;13.70;99.90;;;;;;5025221;28;20255;-72
2022/09/22 06:49:04;;;;;;;1.95;1.30;;;13.70;99.90;;;;;;5024379;28;20579;-72
2022/09/22 06:51:32;;;;;;;2.58;2.05;;;13.70;99.90;;;;;;5025545;28;20196;-73
2022/09/22 06:54:00;;;;;;;1.60;1.50;;;13.70;99.90;;;;;;5023680;28;20661;-72
2022/09/22 06:56:28;;;;;;;1.75;1.65;;;13.80;99.90;;;;;;5035927;28;20203;-72
2022/09/22 06:58:56;;;;;;;1.63;1.52;;;13.90;99.90;;;;;;5029601;28;20231;-72
2022/09/22 07:01:24;;;;;;;1.83;1.60;;;14.00;99.90;;;;;;5027678;28;22004;-73
2022/09/22 07:03:53;;;;;;;2.45;1.52;;;14.00;99.90;;;;;;5025510;28;21922;-73
2022/09/22 07:06:21;;;;;;;1.42;1.33;;;14.10;99.90;;;;;;5023900;28;20326;-72
2022/09/22 07:08:49;;;;;;;1.50;1.40;;;14.10;99.90;;;;;;5021707;28;20277;-72
2022/09/22 07:11:19;;;;;;;1.85;1.75;;;14.10;99.90;;;;;;5024455;28;20257;-72
2022/09/22 07:13:46;;;;;;;1.73;1.63;;;14.10;99.90;;;;;;5019823;28;20312;-73
2022/09/22 07:16:16;;;;;;;1.67;1.23;;;14.10;99.90;;;;;;5017213;28;20200;-72
2022/09/22 07:18:46;;;;;;;2.85;1.33;;;14.20;99.90;;;;;;5020000;28;20934;-73
2022/09/22 07:21:19;;;;;;;2.75;1.73;;;15.00;99.90;;;;;;5025023;28;20568;-72
2022/09/22 07:23:48;;;;;;;1.63;1.52;;;15.70;99.90;;;;;;5022923;28;20230;-72
2022/09/22 07:26:18;;;;;;;1.58;1.42;;;16.40;99.90;;;;;;5021821;28;20219;-72
2022/09/22 07:28:49;;;;;;;1.45;1.35;;;16.90;99.90;;;;;;5029563;28;20348;-72
2022/09/22 07:31:16;;;;;;;1.75;1.40;;;17.10;99.90;;;;;;5019133;28;20192;-72
2022/09/22 07:33:45;;;;;;;1.80;1.67;;;17.20;99.90;;;;;;5018767;28;20251;-72
2022/09/22 07:36:17;;;;;;;2.25;1.38;;;17.10;99.90;;;;;;5021353;28;20207;-72
2022/09/22 07:38:48;;;;;;;1.30;1.20;;;17.10;99.90;;;;;;5024204;28;20238;-72
2022/09/22 07:41:18;;;;;;;2.63;1.33;;;17.30;99.90;;;;;;5025263;28;20195;-72
2022/09/22 07:43:45;;;;;;;1.63;1.35;;;17.30;99.90;;;;;;5023492;28;20312;-72
2022/09/22 07:46:12;;;;;;;2.17;1.65;;;17.70;99.90;;;;;;5023651;28;20215;-72
2022/09/22 07:48:45;;;;;;;2.67;1.60;;;17.80;99.90;;;;;;5025207;28;20227;-72
2022/09/22 07:51:19;;;;;;;2.60;1.77;;;17.90;99.90;;;;;;5025342;28;20651;-73
2022/09/22 07:53:48;;;;;;;1.67;1.45;;;18.00;99.90;;;;;;5025255;28;20276;-73
2022/09/22 07:56:17;;;;;;;3.50;1.42;;;18.20;99.90;;;;;;5026262;28;20195;-73
2022/09/22 07:58:49;;;;;;;1.73;1.38;;;18.30;99.90;;;;;;5023860;28;20296;-72
2022/09/22 08:01:17;;;;;;;1.50;1.40;;;18.30;99.90;;;;;;5018695;28;20715;-72
2022/09/22 08:03:45;;;;;;;2.10;1.20;;;18.50;99.90;;;;;;5023700;28;20219;-73
2022/09/22 08:06:13;;;;;;;1.80;1.10;;;18.80;99.90;;;;;;5025826;28;20215;-72
2022/09/22 08:08:43;;;;;;;1.60;1.50;;;19.00;99.90;;;;;;5025475;28;20219;-73
2022/09/22 08:11:13;;;;;;;1.90;1.27;;;19.30;99.90;;;;;;5028849;28;20569;-72
2022/09/22 08:13:42;;;;;;;2.15;1.45;;;19.30;99.90;;;;;;5030092;28;20447;-71
2022/09/22 08:16:10;;;;;;;2.65;1.67;;;19.20;99.90;;;;;;5023760;28;20258;-72
2022/09/22 08:18:39;;;;;;;1.40;1.30;;;19.20;99.90;;;;;;5026492;28;20219;-72
2022/09/22 08:21:07;;;;;;;1.90;1.20;;;19.40;99.90;;;;;;5028913;28;20223;-72
2022/09/22 08:23:36;;;;;;;1.60;1.40;;;19.70;99.90;;;;;;5026271;28;20231;-73
2022/09/22 08:26:06;;;;;;;2.15;1.10;;;19.80;99.90;;;;;;5027840;28;20404;-72
2022/09/22 08:28:33;;;;;;;2.38;1.30;;;19.90;99.90;;;;;;5024721;28;20634;-73
2022/09/22 08:31:01;;;;;;;2.30;1.40;;;20.00;99.90;;;;;;5033684;28;20198;-72
2022/09/22 08:33:31;;;;;;;3.33;1.33;;;20.10;99.90;;;;;;5027428;28;20227;-72
2022/09/22 08:36:02;;;;;;;2.88;1.30;;;20.10;99.90;;;;;;5025558;28;20618;-71
2022/09/22 08:38:30;;;;;;;2.75;1.20;;;19.90;99.90;;;;;;5030880;28;20231;-73
2022/09/22 08:41:26;;;;;;;1.77;1.67;;;19.80;99.90;;;;;;5027705;28;20199;-73
2022/09/22 08:43:56;;;;;;;1.20;1.10;;;19.90;99.90;;;;;;5029584;28;20227;-73
2022/09/22 08:46:27;;;;;;;3.28;1.50;;;20.30;99.90;;;;;;5024504;28;20224;-73
2022/09/22 08:51:55;;;;;;;1.20;1.00;;;20.30;99.90;;;;;;5029323;28;20194;-73
2022/09/22 08:54:27;;;;;;;1.65;1.30;;;20.30;99.90;;;;;;5030268;28;20704;-73
2022/09/22 08:57:10;;;;;;;3.25;1.40;;;20.30;99.90;;;;;;5028694;28;20239;-72
2022/09/22 08:59:44;;;;;;;1.80;1.42;;;20.20;99.90;;;;;;5028977;28;20251;-73
2022/09/22 09:02:40;;;;;;;1.38;1.27;;;20.20;99.90;;;;;;5025515;28;20188;-73
2022/09/22 09:05:44;;;;;;;1.30;1.20;;;20.10;99.90;;;;;;5025904;28;20223;-72
2022/09/22 09:08:39;;;;;;;1.50;1.40;;;20.30;99.90;;;;;;5017037;28;20215;-72
2022/09/22 09:11:17;;;;;;;2.30;1.38;;;20.70;99.90;;;;;;5027117;28;20212;-72
2022/09/22 09:13:59;;;;;;;1.92;1.10;;;20.70;99.90;;;;;;5026978;28;20295;-72
2022/09/22 09:16:44;;;;;;;1.40;1.20;;;20.70;99.90;;;;;;5026341;28;20203;-73
2022/09/22 09:19:17;;;;;;;2.58;1.50;;;20.90;99.90;;;;;;5025229;28;20759;-73
2022/09/22 09:21:50;;;;;;;1.88;1.20;;;20.80;99.90;;;;;;5027345;28;20196;-73
2022/09/22 09:24:28;;;;;;;1.60;1.50;;;20.80;99.90;;;;;;5024853;28;20215;-73
2022/09/22 09:27:07;;;;;;;1.20;1.10;;;20.70;99.90;;;;;;5025020;28;20285;-73
2022/09/22 09:29:42;;;;;;;1.40;1.30;;;20.80;99.90;;;;;;5027318;28;20226;-73
2022/09/22 09:32:18;;;;;;;2.10;1.33;;;20.90;99.90;;;;;;5022737;28;20923;-73
2022/09/22 09:34:47;;;;;;;1.45;1.35;;;21.00;99.90;;;;;;5041650;28;20239;-73
2022/09/22 09:37:16;;;;;;;1.50;1.40;;;21.00;99.90;;;;;;5027570;28;20275;-73
2022/09/22 09:39:45;;;;;;;1.83;1.15;;;20.90;99.90;;;;;;5026014;28;20715;-73
2022/09/22 09:42:20;;;;;;;2.60;1.20;;;20.90;99.90;;;;;;5026304;28;20200;-73
2022/09/22 09:44:52;;;;;;;1.27;1.00;;;21.10;99.90;;;;;;5018594;28;20312;-73
2022/09/22 09:47:31;;;;;;;2.58;1.45;;;21.10;99.90;;;;;;5027004;28;20223;-73
2022/09/22 09:49:59;;;;;;;1.25;1.10;;;21.40;99.90;;;;;;5021080;28;20228;-73
2022/09/22 09:52:27;;;;;;;1.23;1.10;;;21.50;99.90;;;;;;5043466;28;20232;-73
2022/09/22 09:54:55;;;;;;;1.67;1.27;;;21.40;99.90;;;;;;5027364;28;20768;-73
2022/09/22 09:57:24;;;;;;;1.15;1.08;;;21.40;99.90;;;;;;5023068;28;20564;-76
2022/09/22 10:00:30;;;;;;;2.45;0.93;;;21.30;99.90;;;;;;5019974;28;20219;-76
2022/09/22 10:03:13;;;;;;;1.27;1.08;;;21.70;99.90;;;;;;5020650;28;20203;-77
2022/09/22 10:05:40;;;;;;;1.20;1.08;;;21.70;99.90;;;;;;5028296;28;20766;-75
2022/09/22 10:08:18;;;;;;;1.60;1.20;;;21.30;99.90;;;;;;5024387;28;20239;-74
2022/09/22 10:10:48;;;;;;;1.17;1.08;;;21.40;99.90;;;;;;5021928;28;20208;-75
2022/09/22 10:13:28;;;;;;;1.10;1.00;;;21.70;99.90;;;;;;5021690;28;20721;-75
2022/09/22 10:16:23;;;;;;;1.45;1.10;;;21.90;99.90;;;;;;5024055;28;20740;-76
2022/09/22 10:19:02;;;;;;;1.05;1.02;;;21.80;99.90;;;;;;5026821;28;20380;-74
2022/09/22 10:21:29;;;;;;;1.95;1.10;;;21.60;99.90;;;;;;5038286;28;20187;-74
2022/09/22 10:23:58;;;;;;;1.73;1.20;;;21.60;99.90;;;;;;5022670;28;20619;-74
2022/09/22 10:26:28;;;;;;;2.60;1.02;;;21.30;99.90;;;;;;5024159;28;20274;-76
2022/09/22 10:29:17;;;;;;;2.25;1.00;;;21.30;99.90;;;;;;5024093;28;20235;-75
2022/09/22 10:32:05;;;;;;;1.00;1.00;;;21.30;99.90;;;;;;5023115;28;20227;-75
2022/09/22 10:34:34;;;;;;;2.58;1.20;;;21.10;99.90;;;;;;5021483;28;20228;-76
2022/09/22 10:37:04;;;;;;;1.88;1.10;;;20.70;99.90;;;;;;5017649;28;20192;-76
2022/09/22 10:39:41;;;;;;;1.63;1.10;;;20.80;99.90;;;;;;5016488;28;20227;-76
2022/09/22 10:42:22;;;;;;;2.28;1.30;;;21.00;99.90;;;;;;5026344;28;20199;-76
2022/09/22 10:44:51;;;;;;;1.30;1.20;;;21.30;99.90;;;;;;5022983;28;20227;-75
2022/09/22 10:47:32;;;;;;;1.55;1.30;;;21.40;99.90;;;;;;5025591;28;20859;-76
2022/09/22 10:50:30;;;;;;;1.45;1.33;;;21.60;99.90;;;;;;5023995;28;20666;-76
2022/09/22 10:53:07;;;;;;;1.30;1.20;;;21.60;99.90;;;;;;5026489;28;20235;-76
2022/09/22 10:55:36;;;;;;;2.22;1.33;;;21.30;99.90;;;;;;5033253;28;20195;-76
2022/09/22 10:58:26;;;;;;;2.03;0.88;;;21.30;99.90;;;;;;5023902;28;20219;-76
2022/09/22 11:01:09;;;;;;;2.13;1.20;;;21.70;99.90;;;;;;5020360;28;20931;-76
2022/09/22 11:04:08;;;;;;;1.80;1.10;;;22.00;99.90;;;;;;5022641;28;20512;-76
2022/09/22 11:12:38;;;;;;;1.95;1.00;;;21.80;99.90;;;;;;5027870;28;20199;-77
2022/09/22 11:15:19;;;;;;;1.13;1.05;;;21.60;99.90;;;;;;5021621;28;20226;-76
2022/09/22 11:18:12;;;;;;;1.90;1.10;;;21.40;99.90;;;;;;5047873;28;20191;-74
2022/09/22 11:20:43;;;;;;;3.20;1.73;;;21.00;99.90;;;;;;5020220;28;20207;-75
2022/09/22 11:23:49;;;;;;;1.23;1.05;;;20.80;99.90;;;;;;5007571;28;20215;-75
2022/09/22 11:26:36;;;;;;;0.95;0.90;;;20.80;99.90;;;;;;5001936;28;21032;-74
2022/09/22 11:29:31;;;;;;;0.80;0.80;;;20.80;99.90;;;;;;5031597;28;20238;-74
2022/09/22 11:32:07;;;;;;;1.70;1.05;;;20.80;99.90;;;;;;5022667;28;20207;-74
2022/09/22 11:34:53;;;;;;;1.10;1.00;;;21.00;99.90;;;;;;5029642;28;20218;-75
2022/09/22 11:37:38;;;;;;;1.10;0.85;;;21.10;99.90;;;;;;5022263;28;20199;-75
2022/09/22 11:40:32;;;;;;;1.17;0.98;;;21.40;99.90;;;;;;5022121;28;21708;-75
2022/09/22 11:43:15;;;;;;;0.88;0.88;;;21.30;99.70;;;;;;5024640;28;20239;-76
2022/09/22 11:45:48;;;;;;;1.10;1.00;;;21.30;99.20;;;;;;5020975;28;20862;-75
2022/09/22 11:48:35;;;;;;;1.77;1.20;;;21.10;99.90;;;;;;5025752;28;20226;-74
2022/09/22 11:51:24;;;;;;;1.23;1.13;;;21.20;99.40;;;;;;5018996;28;20199;-75
2022/09/22 11:54:06;;;;;;;2.35;1.17;;;21.20;99.70;;;;;;5022113;28;20228;-74
2022/09/22 11:56:42;;;;;;;1.88;1.25;;;21.10;99.80;;;;;;5026607;28;20226;-74
2022/09/22 11:59:28;;;;;;;1.33;1.00;;;21.20;99.90;;;;;;5026917;28;20219;-74
2022/09/22 12:01:57;;;;;;;2.45;1.20;;;21.30;99.00;;;;;;5039669;28;20203;-74
2022/09/22 12:04:37;;;;;;;1.70;1.20;;;21.40;99.00;;;;;;5025923;28;20222;-74
2022/09/22 12:07:13;;;;;;;3.10;1.13;;;21.50;99.20;;;;;;5029260;28;20318;-74
2022/09/22 12:09:47;;;;;;;1.35;1.10;;;21.40;98.50;;;;;;5054816;28;20687;-74
2022/09/22 12:12:18;;;;;;;3.13;1.15;;;21.20;98.50;;;;;;5024968;28;20751;-75
2022/09/22 12:14:47;;;;;;;1.67;0.90;;;21.20;99.70;;;;;;5021264;28;20220;-74
2022/09/22 12:17:22;;;;;;;1.20;0.90;;;21.30;99.30;;;;;;5016838;28;20628;-74
2022/09/22 12:19:56;;;;;;;1.90;1.02;;;21.20;98.60;;;;;;5022157;28;20301;-74
2022/09/22 12:22:30;;;;;;;2.00;1.00;;;21.10;97.50;;;;;;5026475;28;20248;-74
2022/09/22 12:24:59;;;;;;;1.40;1.27;;;21.10;97.80;;;;;;5023940;28;20231;-74
2022/09/22 12:27:28;;;;;;;1.75;1.10;;;21.20;97.60;;;;;;5022349;28;20219;-74
2022/09/22 12:29:59;;;;;;;1.67;0.77;;;21.30;98.10;;;;;;5039145;28;20663;-74
2022/09/22 12:32:32;;;;;;;1.10;0.98;;;21.50;96.40;;;;;;5020022;28;20230;-74
2022/09/22 12:35:00;;;;;;;0.80;0.80;;;21.50;97.10;;;;;;5024080;28;20231;-74
2022/09/22 12:37:30;;;;;;;2.00;1.63;;;21.40;96.80;;;;;;5028120;28;20202;-74
2022/09/22 12:40:06;;;;;;;1.48;0.77;;;21.40;97.20;;;;;;5028334;28;20232;-74
2022/09/22 12:42:36;;;;;;;1.48;0.80;;;21.40;96.90;;;;;;5022111;28;20238;-74
2022/09/22 12:45:13;;;;;;;1.23;1.13;;;21.40;96.20;;;;;;5039756;28;20272;-74
2022/09/22 12:47:41;;;;;;;0.90;0.80;;;21.20;96.00;;;;;;5018213;28;20640;-74
2022/09/22 12:50:33;;;;;;;1.00;0.80;;;21.30;96.30;;;;;;5024761;28;20207;-74
2022/09/22 12:53:10;;;;;;;1.10;1.00;;;21.30;94.60;;;;;;5022405;28;20227;-74
2022/09/22 12:55:39;;;;;;;1.80;1.02;;;21.40;95.30;;;;;;5028976;28;20237;-74
2022/09/22 12:58:40;;;;;;;0.60;0.60;;;21.30;95.60;;;;;;5030953;28;20231;-74
2022/09/22 13:01:31;;;;;;;2.17;0.95;;;21.30;94.50;;;;;;5031539;28;20195;-75
2022/09/22 13:04:06;;;;;;;0.93;0.90;;;21.30;93.70;;;;;;5022015;28;20257;-74
2022/09/22 13:06:57;;;;;;;1.25;1.10;;;21.30;94.60;;;;;;5026048;28;20199;-75
2022/09/22 13:09:28;;;;;;;3.15;1.10;;;21.30;94.40;;;;;;5025622;28;20223;-75
2022/09/22 13:12:29;;;;;;;1.00;0.85;;;21.20;94.00;;;;;;5024847;28;20204;-75
2022/09/22 13:15:16;;;;;;;1.38;1.08;;;21.10;94.60;;;;;;5025152;28;20700;-75
2022/09/22 13:17:45;;;;;;;2.20;1.00;;;21.20;95.20;;;;;;5025499;28;20195;-75
2022/09/22 13:20:23;;;;;;;1.95;0.90;;;21.30;94.70;;;;;;5033120;28;20206;-74
2022/09/22 13:22:51;;;;;;;2.22;0.88;;;21.30;94.20;;;;;;5023637;28;20608;-74
2022/09/22 13:25:30;;;;;;;0.90;0.90;;;21.10;94.30;;;;;;5028586;28;20302;-74